EDJA

Details ICAO EDJA (FMM)
Name MEMMINGEN ALLGAU
Region Germany - Civil
Timezone Europe/Berlin (UTC+1.0)
Plans Departing 96
Arriving 103
Stats Elevation 2,077 ft / 633 m (AMSL)
Location 47.988757° 10.239502°
Runways 1
Magnetic Variation 2.772° E
Sunrise 2017-12-15 07:03:33 UTC / 2017-12-15 08:03:33 Local
Sunset 2017-12-15 15:27:36 UTC / 2017-12-15 16:27:36 Local
Advertisement - Login to hide

Runways

ID Width Length Bearing (true) Bearing (mag) Surface Threshold Offset Overrun Length
06 98 ft / 30 m 9,762 ft / 2,975 m 57.91° 55.14° Asphalt 953 ft / 290 m 0 ft / 0 m
24 98 ft / 30 m 9,762 ft / 2,975 m 237.94° 235.17° Asphalt 953 ft / 290 m 0 ft / 0 m

Approach Navaids

Runway Type Ident Frequency Range Bearing (true) Bearing (mag) Slope Elevation
24 Localiser IAMW 110.10 MHz 18 nm / 33 km 239.25° 236.48° - 0 ft / 0 m (AMSL)
24 Glidescope IAMW 110.10 MHz 18 nm / 33 km 237.44° 234.67° 3.00° 2,050 ft / 625 m (AMSL)
24 DME IAMW 110.10 MHz 25 nm / 46 km - - - 2,064 ft / 629 m (AMSL)

Map

Weather


0- 5 10 15 20 25 30 35+ Temperature / ° C

Clouds and Precipitation
Forecast for 2017-12-15 06:00 UTC. Updated an hour ago

Ground ~20,000 ft ~40,000 ft Winds

METAR

EDJA 150550Z 24011KT 9999 FEW003 SCT010 OVC013 01/00 Q0998

TAF

Not found

Frequencies

Tower 135.60 MHz INFO
Tower 126.95 MHz MUNCHEN INFO
Warning: Do not use this data for real-world aviation or navigation. No guarantee of current accuracy is given.